• Join FlightAware (Why Join?)
  • Login
  • US Flag 
10:08AM EDT


 

Airport Tracker/Info


-or-


 

Live Flight TrackerFlight Track Log ✈ N515JM ✈ 17-Nov-2013 ✈ KOPF - KTEB

Flight Track Log - Related Links

Times and Time Zones

All times are in EST time to prevent confusion due to time zone crossing. See the N515JM flight status page for this flight to view local times or setup timezone preferences in your user account.

Time Position Orientation Groundspeed Altitude Reporting Facility
EST Latitude Longitude Course Direction KTS MPH feet Rate Location/Type
03:41PM 25.9114 -80.2614 84° East 169 194 400  Level Miami Center
03:42PM 25.9194 -80.1764 84° East 265 305 2,000 1,380 Climbing Miami Center
03:43PM 25.9311 -80.1281 75° East 248 285 3,000 2,280 Climbing Miami Center
03:44PM 25.9431 -80.0522 80° East 248 285 5,800 2,760 Climbing Miami Center
03:45PM 25.9533 -79.9669 82° East 264 304 8,600 2,700 Climbing Miami Center
03:46PM 25.9636 -79.8747 83° East 283 326 11,300 2,460 Climbing Miami Center
03:47PM 25.9989 -79.7786 68° East 308 354 13,600 2,280 Climbing Miami Center
03:48PM 26.0572 -79.6897 54° Northeast 327 376 15,900 2,100 Climbing Miami Center
03:49PM 26.1275 -79.6106 45° Northeast 345 397 17,800 1,800 Climbing Miami Center
03:50PM 26.2247 -79.5550 27° Northeast 371 427 19,500 1,740 Climbing Miami Center
03:51PM 26.3156 -79.4919 32° Northeast 381 438 21,300 1,560 Climbing Miami Center
03:52PM 26.4022 -79.4383 29° Northeast 391 450 22,700 1,560 Climbing Miami Center
03:53PM 26.5122 -79.3686 30° Northeast 403 464 24,500 1,620 Climbing Miami Center
03:54PM 26.6008 -79.3125 30° Northeast 408 470 26,000 1,500 Climbing Miami Center
03:55PM 26.7106 -79.2428 30° Northeast 408 470 27,500 1,440 Climbing Miami Center
03:56PM 26.8097 -79.1794 30° Northeast 408 470 28,900 1,200 Climbing Miami Center
03:57PM 26.9111 -79.1142 30° Northeast 408 470 30,000 1,020 Climbing Miami Center
03:58PM 27.0103 -79.0506 30° Northeast 408 470 31,000 1,020 Climbing Miami Center
03:59PM 27.1136 -78.9850 29° Northeast 416 479 32,100 1,020 Climbing Miami Center
04:00PM 27.2167 -78.9214 29° Northeast 416 479 33,100 960 Climbing Miami Center
04:01PM 27.3094 -78.8600 30° Northeast 422 486 34,100 900 Climbing Miami Center
04:02PM 27.4125 -78.8033 26° Northeast 417 480 35,000 960 Climbing Miami Center
04:03PM 27.5383 -78.7772 10° North 410 472 36,100 960 Climbing Miami Center
04:04PM 27.6472 -78.7556 10° North 404 465 37,000 420 Climbing Miami Center
04:05PM 27.7581 -78.7386 North 399 459 37,000  Level Miami Center
04:06PM 27.8647 -78.7192 North 419 482 37,000  Level Miami Center
04:07PM 27.9925 -78.6978 North 419 482 37,000  Level Miami Center
04:08PM 28.1117 -78.6739 10° North 419 482 37,000  Level Miami Center
04:09PM 28.2331 -78.6547 North 430 495 37,000  Level Miami Center
04:10PM 28.3481 -78.6328 10° North 425 489 37,000  Level Miami Center
04:11PM 28.4694 -78.6111 North 425 489 37,000  Level Miami Center
04:12PM 28.5886 -78.5894 North 430 495 37,000  Level Miami Center
04:13PM 28.7078 -78.5700 North 425 489 37,000  Level Miami Center
04:14PM 28.8311 -78.5481 North 435 501 37,000  Level Miami Center
04:15PM 28.9483 -78.5239 10° North 430 495 37,000  Level Miami Center
04:16PM 29.0697 -78.5067 North 430 495 37,000  Level Miami Center
04:17PM 29.1825 -78.4822 11° North 430 495 37,000  Level Miami Center
04:18PM 29.3039 -78.4625 North 425 489 37,000  Level Miami Center
04:19PM 29.4228 -78.4428 North 431 496 37,000  Level Miami Center
04:20PM 29.5400 -78.4206 North 424 488 37,000  Level Miami Center
04:21PM 29.6569 -78.4033 North 424 488 37,000  Level Miami Center
04:22PM 29.7731 -78.3706 14° North 424 488 37,000  Level Jacksonville Center
04:23PM 29.8789 -78.3536 North 434 499 37,000  Level Jacksonville Center
04:24PM 30.0014 -78.3361 North 429 494 37,000  Level Jacksonville Center
04:25PM 30.1106 -78.2947 18° North 429 494 37,000  Level Jacksonville Center
04:26PM 30.2364 -78.2575 14° North 430 495 37,000  Level Jacksonville Center
04:27PM 30.3519 -78.2206 15° North 430 495 37,000  Level Jacksonville Center
04:28PM 30.4739 -78.1833 15° North 435 501 37,000  Level Jacksonville Center
04:29PM 30.5953 -78.1411 17° North 434 499 37,000  Level Jacksonville Center
04:30PM 30.7089 -78.1042 16° North 427 491 37,000  Level Jacksonville Center
04:31PM 30.8283 -78.0642 16° North 434 499 37,000  Level Jacksonville Center
04:32PM 30.9439 -78.0269 15° North 434 499 37,000  Level Jacksonville Center
04:33PM 31.0569 -77.9822 19° North 429 494 37,000  Level Jacksonville Center
04:34PM 31.1747 -77.9494 13° North 424 488 37,000  Level Jacksonville Center
04:35PM 31.2897 -77.9044 18° North 429 494 37,000  Level Jacksonville Center
04:36PM 31.4072 -77.8689 14° North 434 499 37,000  Level Jacksonville Center
04:37PM 31.5228 -77.8311 16° North 434 499 37,000  Level Jacksonville Center
04:38PM 31.6381 -77.7931 16° North 434 499 37,000  Level Jacksonville Center
04:39PM 31.7533 -77.7550 16° North 428 493 37,000  Level Jacksonville Center
04:40PM 31.8708 -77.7167 15° North 428 493 37,000  Level Jacksonville Center
04:41PM 31.9903 -77.6756 16° North 438 504 37,000  Level Jacksonville Center
04:42PM 32.1050 -77.6764 360° North 415 478 37,000  Level Jacksonville Center
04:43PM 32.2222 -77.6844 357° North 415 478 37,000  Level Jacksonville Center
04:44PM 32.3372 -77.6878 359° North 415 478 37,000  Level Jacksonville Center
04:45PM 32.4542 -77.6933 358° North 420 483 37,000  Level Jacksonville Center
04:46PM 32.5714 -77.6964 359° North 420 483 37,000  Level Jacksonville Center
04:47PM 32.6844 -77.7047 356° North 420 483 37,000  Level Jacksonville Center
04:48PM 32.8031 -77.7028 North 425 489 37,000  Level Jacksonville Center
04:49PM 32.9183 -77.7086 358° North 425 489 37,000  Level Jacksonville Center
04:50PM 33.0353 -77.7142 358° North 425 489 37,000  Level Jacksonville Center
04:52PM 33.2894 -77.7181 359° North 420 483 37,000  Level Washington Center
04:53PM 33.4083 -77.7186 360° North 420 483 37,000  Level Washington Center
04:54PM 33.5228 -77.7239 358° North 420 483 37,000  Level Washington Center
04:55PM 33.6397 -77.7269 359° North 420 483 37,000  Level Washington Center
04:56PM 33.7542 -77.7297 359° North 420 483 37,000  Level Washington Center
04:57PM 33.8711 -77.7303 360° North 420 483 37,000  Level Washington Center
04:58PM 33.9942 -77.7286 North 425 489 37,000  Level Washington Center
04:59PM 34.1192 -77.7392 356° North 420 483 37,000  Level Washington Center
05:00PM 34.2381 -77.7425 359° North 415 478 37,000  Level Washington Center
05:01PM 34.3589 -77.7481 358° North 421 484 37,000  Level Washington Center
05:02PM 34.4736 -77.7511 359° North 421 484 37,000  Level Washington Center
05:03PM 34.5925 -77.7542 359° North 421 484 37,000  Level Washington Center
05:04PM 34.7072 -77.7572 359° North 421 484 37,000  Level Washington Center
05:05PM 34.8011 -77.7597 359° North 421 484 37,000  Level Washington Center
05:06PM 34.9389 -77.7608 360° North 416 479 37,000  Level Washington Center
05:07PM 35.0556 -77.7639 359° North 416 479 37,000  Level Washington Center
05:08PM 35.1744 -77.7647 360° North 421 484 37,000  Level Washington Center
05:09PM 35.2956 -77.7678 359° North 421 484 37,000  Level Washington Center
05:10PM 35.4122 -77.7711 359° North 421 484 37,000  Level Washington Center
05:11PM 35.5311 -77.7742 359° North 421 484 37,000  Level Washington Center
05:12PM 35.6519 -77.7775 359° North 421 484 37,000  Level Washington Center
05:13PM 35.7689 -77.7808 359° North 421 484 37,000  Level Washington Center
05:14PM 35.8897 -77.7842 359° North 421 484 37,000  Level Washington Center
05:15PM 36.0086 -77.7900 358° North 421 484 37,000  Level Washington Center
05:16PM 36.1297 -77.7933 359° North 421 484 37,000  Level Washington Center
05:17PM 36.2486 -77.7942 360° North 421 484 37,000  Level Washington Center
05:18PM 36.3672 -77.8000 358° North 421 484 37,000  Level Washington Center
05:19PM 36.4819 -77.8033 359° North 416 479 37,000  Level Washington Center
05:20PM 36.6050 -77.8067 359° North 422 486 37,000  Level Washington Center
05:21PM 36.7239 -77.8100 359° North 422 486 37,000  Level Washington Center
05:22PM 36.8447 -77.8136 359° North 422 486 37,000  Level Washington Center
05:23PM 36.9683 -77.7886 North 436 502 37,000  Level Washington Center
05:24PM 37.0908 -77.7139 26° Northeast 441 507 37,000  Level Washington Center
05:25PM 37.2108 -77.6442 25° Northeast 456 525 37,000  Level Washington Center
05:26PM 37.3353 -77.5717 25° Northeast 472 543 37,000  Level Washington Center
05:27PM 37.4572 -77.4992 25° Northeast 477 549 37,000 -180 Level Washington Center
05:28PM 37.5753 -77.4286 25° Northeast 477 549 36,700 -540 Descending Washington Center
05:29PM 37.6972 -77.3556 25° Northeast 472 543 36,000 -360 Descending Washington Center
05:30PM 37.8172 -77.2847 25° Northeast 472 543 36,000  Level Washington Center
05:31PM 37.9392 -77.2083 26° Northeast 472 543 36,000  Level Washington Center
05:32PM 38.0531 -77.1158 33° Northeast 478 550 36,000  Level Washington Center
05:33PM 38.1708 -77.0233 32° Northeast 490 564 36,000  Level Washington Center
05:34PM 38.2847 -76.9328 32° Northeast 490 564 36,000 -540 Level Washington Center
05:35PM 38.3961 -76.8422 32° Northeast 478 550 35,000 -1,380 Descending Washington Center
05:36PM 38.5117 -76.7511 32° Northeast 478 550 33,300 -1,740 Descending Washington Center
05:37PM 38.6250 -76.6572 33° Northeast 483 556 31,600 -1,620 Descending Washington Center
05:38PM 38.7406 -76.5658 32° Northeast 478 550 30,100 -1,560 Descending Washington Center
05:39PM 38.8497 -76.4792 32° Northeast 473 544 28,600 -1,620 Descending Washington Center
05:40PM 38.9628 -76.3897 32° Northeast 473 544 26,800 -1,860 Descending Washington Center
05:41PM 39.0739 -76.2947 34° Northeast 478 550 25,000 -1,440 Descending Washington Center
05:42PM 39.1764 -76.1994 36° Northeast 471 542 24,000 -1,440 Descending Washington Center
05:45PM 39.4500 -75.9333 37° Northeast 436 502 19,900 -1,740 Descending Philadelphia TRACON
05:45PM 39.5333 -75.8500 38° Northeast 424 488 18,000 -2,040 Descending Philadelphia TRACON
05:46PM 39.6167 -75.7667 38° Northeast 413 475 16,000 -2,100 Descending Philadelphia TRACON
05:47PM 39.7167 -75.6833 33° Northeast 406 467 13,900 -1,500 Descending Philadelphia TRACON
05:48PM 39.8000 -75.5833 43° Northeast 399 459 13,000 -480 Descending Philadelphia TRACON
05:50PM 39.9000 -75.5000 33° Northeast 414 476 13,000  Level Philadelphia TRACON
05:50PM 40.0000 -75.4167 33° Northeast 428 493 13,100  Climbing Philadelphia TRACON
05:51PM 40.0833 -75.3333 37° Northeast 417 480 13,100 -360 Level Philadelphia TRACON
05:52PM 40.1833 -75.2500 32° Northeast 410 472 12,400 -1,200 Descending Philadelphia TRACON
05:53PM 40.2667 -75.1667 37° Northeast 368 423 10,700 -1,620 Descending Philadelphia TRACON
05:56PM 40.4167 -74.9667 45° Northeast 316 364 7,000 -1,500 Descending New York TRACON
05:57PM 40.4833 -74.9000 37° Northeast 310 357 5,800 -1,260 Descending New York TRACON
05:58PM 40.5500 -74.8333 37° Northeast 308 354 4,500 -900 Descending New York TRACON
05:59PM 40.6167 -74.7833 30° Northeast 304 350 4,100 -240 Descending New York TRACON
06:00PM 40.7000 -74.7500 17° North 302 348 4,100  Level New York TRACON
06:01PM 40.7833 -74.7000 24° Northeast 298 343 4,100  Level New York TRACON
06:02PM 40.8500 -74.6500 30° Northeast 298 343 4,100 -120 Level New York TRACON
06:03PM 40.9167 -74.5833 37° Northeast 300 345 3,900 -540 Descending New York TRACON
06:04PM 40.9833 -74.5167 37° Northeast 284 327 3,100 -420 Descending New York TRACON
06:05PM 41.0333 -74.4500 45° Northeast 280 322 3,100  Level New York TRACON
06:06PM 41.0833 -74.3667 51° Northeast 260 299 3,100  Level New York TRACON
06:07PM 41.1167 -74.3000 56° Northeast 228 262 3,100  Level New York TRACON
06:08PM 41.1333 -74.2333 72° East 217 250 3,100  Level New York TRACON
06:09PM 41.1167 -74.1500 105° East 211 243 3,100  Level New York TRACON
06:10PM 41.0833 -74.1000 131° Southeast 194 223 3,100 -360 Level New York TRACON
06:11PM 41.0500 -74.0500 131° Southeast 170 196 2,400 -540 Descending New York TRACON
06:12PM 41.0167 -74.0500 180° South 148 170 2,100 -180 Descending New York TRACON
06:13PM 40.9667 -74.0500 180° South 146 168 2,100 -240 Level New York TRACON
06:14PM 40.9333 -74.0500 180° South 141 162 1,700 -600 Descending New York TRACON
06:15PM 40.9000 -74.0500 180° South 121 139 1,000 -720 Descending New York TRACON